Time;durP1;ratioP1;P1;durP2;ratioP2;P2;SDS_P1;SDS_P2;PMS_P1;PMS_P2;Temp;Humidity;BMP_temperature;BMP_pressure;BME280_temperature;BME280_humidity;BME280_pressure;Samples;Min_cycle;Max_cycle;Signal;HPM_P1;HPM_P2
2021/12/12 00:02:06;;;;;;;0.45;0.43;;;;;;;;;;4199213;28;20106;-41
2021/12/12 00:04:14;;;;;;;0.82;0.47;;;;;;;;;;4199445;28;20056;-41
2021/12/12 00:06:18;;;;;;;0.50;0.50;;;;;;;;;;4199359;28;20048;-43
2021/12/12 00:08:20;;;;;;;0.30;0.30;;;;;;;;;;4198926;28;20055;-41
2021/12/12 00:10:23;;;;;;;0.40;0.30;;;;;;;;;;4199496;28;20114;-42
2021/12/12 00:12:27;;;;;;;0.47;0.47;;;;;;;;;;4199338;28;20040;-42
2021/12/12 00:14:29;;;;;;;0.30;0.30;;;;;;;;;;4199101;28;20493;-39
2021/12/12 00:16:31;;;;;;;0.73;0.50;;;;;;;;;;4199167;28;20249;-40
2021/12/12 00:18:32;;;;;;;0.95;0.50;;;;;;;;;;4198079;28;20083;-40
2021/12/12 00:20:33;;;;;;;0.50;0.47;;;;;;;;;;4199169;28;20052;-42
2021/12/12 00:22:35;;;;;;;0.40;0.40;;;;;;;;;;4198511;28;20125;-40
2021/12/12 00:24:37;;;;;;;0.45;0.45;;;;;;;;;;4199132;28;20468;-40
2021/12/12 00:26:38;;;;;;;0.60;0.50;;;;;;;;;;4199033;28;20090;-42
2021/12/12 00:28:40;;;;;;;0.57;0.50;;;;;;;;;;4198913;28;20048;-43
2021/12/12 00:30:41;;;;;;;0.38;0.38;;;;;;;;;;4199203;28;20060;-41
2021/12/12 00:32:42;;;;;;;0.30;0.30;;;;;;;;;;4198851;28;20128;-43
2021/12/12 00:34:47;;;;;;;0.25;0.25;;;;;;;;;;4198977;28;20052;-43
2021/12/12 00:36:47;;;;;;;0.50;0.50;;;;;;;;;;4198392;28;20048;-38
2021/12/12 00:38:51;;;;;;;0.50;0.50;;;;;;;;;;4198899;28;20048;-41
2021/12/12 00:40:53;;;;;;;0.63;0.47;;;;;;;;;;4198901;28;20476;-41
2021/12/12 00:42:56;;;;;;;0.50;0.50;;;;;;;;;;4198638;28;20442;-41
2021/12/12 00:44:59;;;;;;;0.30;0.30;;;;;;;;;;4198742;28;20057;-41
2021/12/12 00:47:02;;;;;;;0.75;0.60;;;;;;;;;;4198636;28;20377;-41
2021/12/12 00:49:04;;;;;;;0.35;0.35;;;;;;;;;;4198497;28;20095;-40
2021/12/12 00:51:05;;;;;;;0.40;0.40;;;;;;;;;;4198647;28;20078;-41
2021/12/12 00:53:08;;;;;;;0.40;0.40;;;;;;;;;;4198133;28;20049;-41
2021/12/12 00:55:09;;;;;;;0.40;0.40;;;;;;;;;;4197403;28;20074;-41
2021/12/12 00:57:11;;;;;;;0.43;0.43;;;;;;;;;;4198414;28;20051;-40
2021/12/12 00:59:13;;;;;;;0.30;0.30;;;;;;;;;;4198831;28;20476;-41
2021/12/12 01:01:16;;;;;;;0.50;0.50;;;;;;;;;;4198762;28;20070;-41
2021/12/12 01:03:21;;;;;;;0.68;0.43;;;;;;;;;;4198674;28;20053;-42
2021/12/12 01:05:23;;;;;;;0.50;0.40;;;;;;;;;;4198505;28;20052;-38
2021/12/12 01:07:29;;;;;;;0.77;0.63;;;;;;;;;;4196472;28;20166;-41
2021/12/12 01:09:33;;;;;;;0.55;0.50;;;;;;;;;;4198588;28;20045;-43
2021/12/12 01:11:37;;;;;;;0.32;0.32;;;;;;;;;;4198265;28;20052;-42
2021/12/12 01:13:38;;;;;;;0.63;0.52;;;;;;;;;;4198192;28;20048;-41
2021/12/12 01:15:47;;;;;;;0.60;0.45;;;;;;;;;;4198507;28;20098;-39
2021/12/12 01:17:50;;;;;;;0.60;0.60;;;;;;;;;;4198197;28;20044;-41
2021/12/12 01:20:09;;;;;;;0.70;0.40;;;;;;;;;;4198470;28;20064;-43
2021/12/12 01:22:16;;;;;;;0.50;0.50;;;;;;;;;;4197550;28;20068;-40
2021/12/12 01:24:21;;;;;;;0.57;0.52;;;;;;;;;;4197997;28;20053;-41
2021/12/12 01:26:23;;;;;;;0.90;0.60;;;;;;;;;;4197894;28;20056;-41
2021/12/12 01:28:26;;;;;;;0.38;0.38;;;;;;;;;;4197789;28;20056;-40
2021/12/12 01:30:27;;;;;;;0.60;0.50;;;;;;;;;;4198254;28;20048;-41
2021/12/12 01:32:32;;;;;;;0.50;0.40;;;;;;;;;;4198097;28;20052;-42
2021/12/12 01:34:34;;;;;;;0.65;0.50;;;;;;;;;;4197978;28;20053;-40
2021/12/12 01:37:33;;;;;;;0.32;0.32;;;;;;;;;;4197800;28;20382;-41
2021/12/12 01:39:05;;;;;;;0.65;0.50;;;;;;;;;;4179798;28;20045;-41
2021/12/12 01:41:06;;;;;;;0.40;0.40;;;;;;;;;;4181146;28;20053;-40
2021/12/12 01:43:24;;;;;;;0.65;0.40;;;;;;;;;;4181192;28;20049;-41
2021/12/12 01:45:38;;;;;;;0.50;0.40;;;;;;;;;;4181511;28;20049;-42
2021/12/12 01:47:46;;;;;;;0.47;0.47;;;;;;;;;;4181121;28;20110;-42
2021/12/12 01:49:48;;;;;;;0.40;0.40;;;;;;;;;;4181268;28;20053;-41
2021/12/12 01:51:49;;;;;;;0.43;0.40;;;;;;;;;;4180804;28;20049;-41
2021/12/12 01:53:53;;;;;;;0.52;0.40;;;;;;;;;;4181244;28;20041;-38
2021/12/12 01:55:59;;;;;;;0.82;0.47;;;;;;;;;;4181259;28;20103;-40
2021/12/12 01:58:01;;;;;;;0.75;0.55;;;;;;;;;;4181033;28;20056;-39
2021/12/12 02:00:09;;;;;;;0.52;0.45;;;;;;;;;;4181178;28;20060;-40
2021/12/12 02:02:12;;;;;;;;;;;;;;;;;;4181473;28;20447;-42
2021/12/12 02:04:20;;;;;;;0.93;0.57;;;;;;;;;;4196171;28;19986;-41
2021/12/12 02:06:22;;;;;;;0.60;0.50;;;;;;;;;;4181180;28;20056;-39
2021/12/12 02:08:24;;;;;;;0.60;0.60;;;;;;;;;;4180451;28;20049;-42
2021/12/12 02:10:30;;;;;;;0.47;0.40;;;;;;;;;;4180837;28;20049;-41
2021/12/12 02:12:31;;;;;;;0.60;0.50;;;;;;;;;;4180975;28;20049;-39
2021/12/12 02:14:35;;;;;;;0.63;0.50;;;;;;;;;;4181280;28;20052;-40
2021/12/12 02:16:38;;;;;;;0.68;0.50;;;;;;;;;;4180845;28;20049;-42
2021/12/12 02:18:43;;;;;;;0.50;0.50;;;;;;;;;;4180710;28;20052;-39
2021/12/12 02:36:51;;;;;;;0.50;0.50;;;;;;;;;;4179973;28;20052;-42
2021/12/12 02:38:53;;;;;;;0.47;0.47;;;;;;;;;;4179475;28;20378;-39
2021/12/12 02:40:56;;;;;;;1.08;0.80;;;;;;;;;;4180485;28;20452;-42
2021/12/12 02:42:57;;;;;;;0.40;0.40;;;;;;;;;;4182129;28;20405;-40
2021/12/12 02:45:01;;;;;;;0.63;0.60;;;;;;;;;;4180756;28;20060;-41
2021/12/12 02:47:09;;;;;;;0.60;0.47;;;;;;;;;;4180319;28;20102;-40
2021/12/12 02:49:25;;;;;;;0.60;0.60;;;;;;;;;;4180313;28;20049;-41
2021/12/12 02:51:26;;;;;;;0.60;0.60;;;;;;;;;;4180625;28;20155;-41
2021/12/12 02:53:33;;;;;;;0.43;0.38;;;;;;;;;;4179857;28;20382;-41
2021/12/12 02:55:37;;;;;;;0.70;0.57;;;;;;;;;;4180643;28;20049;-42
2021/12/12 02:57:38;;;;;;;0.68;0.52;;;;;;;;;;4180452;28;20044;-42
2021/12/12 02:59:40;;;;;;;0.50;0.43;;;;;;;;;;4180399;28;20041;-40
2021/12/12 03:01:47;;;;;;;0.63;0.57;;;;;;;;;;4180066;28;20083;-41
2021/12/12 03:03:49;;;;;;;0.70;0.70;;;;;;;;;;4180334;28;20045;-41
2021/12/12 03:05:50;;;;;;;0.88;0.60;;;;;;;;;;4180155;28;20103;-39
2021/12/12 03:07:51;;;;;;;0.75;0.70;;;;;;;;;;4179552;28;20104;-41
2021/12/12 03:09:56;;;;;;;0.68;0.60;;;;;;;;;;4180238;28;20049;-41
2021/12/12 03:11:59;;;;;;;0.60;0.52;;;;;;;;;;4180084;28;20382;-41
2021/12/12 03:14:00;;;;;;;0.57;0.55;;;;;;;;;;4178952;28;20099;-42
2021/12/12 03:16:01;;;;;;;0.60;0.50;;;;;;;;;;4180479;28;20095;-40
2021/12/12 03:18:02;;;;;;;0.75;0.40;;;;;;;;;;4178882;28;20052;-42
2021/12/12 03:20:09;;;;;;;0.90;0.60;;;;;;;;;;4180158;28;20049;-42
2021/12/12 03:22:11;;;;;;;0.70;0.70;;;;;;;;;;4179374;28;20128;-39
2021/12/12 03:24:14;;;;;;;0.82;0.60;;;;;;;;;;4178815;28;20052;-38
2021/12/12 03:26:16;;;;;;;0.47;0.47;;;;;;;;;;4180260;28;20064;-40
2021/12/12 03:28:18;;;;;;;0.45;0.40;;;;;;;;;;4180081;28;20057;-40
2021/12/12 03:30:20;;;;;;;0.82;0.70;;;;;;;;;;4180075;28;20049;-42
2021/12/12 03:32:22;;;;;;;1.15;0.95;;;;;;;;;;4179966;28;20053;-42
2021/12/12 03:34:24;;;;;;;0.50;0.50;;;;;;;;;;4178918;28;20045;-41
2021/12/12 03:36:26;;;;;;;0.50;0.50;;;;;;;;;;4179799;28;20374;-40
2021/12/12 03:38:29;;;;;;;0.60;0.50;;;;;;;;;;4179682;28;20053;-41
2021/12/12 03:40:33;;;;;;;0.70;0.50;;;;;;;;;;4179898;28;20052;-42
2021/12/12 03:42:34;;;;;;;0.60;0.60;;;;;;;;;;4179670;28;20427;-42
2021/12/12 03:44:36;;;;;;;0.73;0.57;;;;;;;;;;4179933;28;20535;-43
2021/12/12 03:46:38;;;;;;;1.02;0.63;;;;;;;;;;4179709;28;20105;-42
2021/12/12 03:48:41;;;;;;;0.60;0.60;;;;;;;;;;4179768;28;20053;-42
2021/12/12 03:50:43;;;;;;;0.80;0.52;;;;;;;;;;4182118;28;20104;-43
2021/12/12 03:52:44;;;;;;;0.70;0.63;;;;;;;;;;4182639;28;20056;-40
2021/12/12 03:54:46;;;;;;;0.40;0.40;;;;;;;;;;4183014;28;20045;-41
2021/12/12 03:56:47;;;;;;;0.68;0.60;;;;;;;;;;4182706;28;20049;-40
2021/12/12 03:58:48;;;;;;;0.43;0.43;;;;;;;;;;4182856;28;20095;-38
2021/12/12 04:00:52;;;;;;;0.60;0.60;;;;;;;;;;4182993;28;20447;-41
2021/12/12 04:02:53;;;;;;;0.40;0.40;;;;;;;;;;4182746;28;20049;-40
2021/12/12 04:04:54;;;;;;;0.52;0.50;;;;;;;;;;4183023;28;20052;-38
2021/12/12 04:06:55;;;;;;;0.70;0.52;;;;;;;;;;4182173;28;20049;-41
2021/12/12 04:08:57;;;;;;;0.60;0.50;;;;;;;;;;4182781;28;20068;-39
2021/12/12 04:10:58;;;;;;;0.50;0.50;;;;;;;;;;4182755;28;20060;-42
2021/12/12 04:13:00;;;;;;;0.68;0.68;;;;;;;;;;4182593;28;20049;-42
2021/12/12 04:15:01;;;;;;;0.70;0.60;;;;;;;;;;4182979;28;20044;-42
2021/12/12 04:17:05;;;;;;;0.60;0.60;;;;;;;;;;4182624;28;20052;-39
2021/12/12 04:19:07;;;;;;;1.00;0.90;;;;;;;;;;4182589;28;20389;-41
2021/12/12 04:21:08;;;;;;;0.73;0.65;;;;;;;;;;4182664;28;20124;-40
2021/12/12 04:23:16;;;;;;;0.63;0.60;;;;;;;;;;4181995;28;20555;-39
2021/12/12 04:25:18;;;;;;;0.53;0.53;;;;;;;;;;4182819;28;20053;-40
2021/12/12 04:27:19;;;;;;;0.60;0.60;;;;;;;;;;4182351;28;20474;-41
2021/12/12 04:29:34;;;;;;;0.80;0.73;;;;;;;;;;4182385;28;20045;-41
2021/12/12 04:31:37;;;;;;;0.50;0.50;;;;;;;;;;4182349;28;20466;-42
2021/12/12 04:33:38;;;;;;;0.60;0.60;;;;;;;;;;4181268;28;20049;-42
2021/12/12 04:35:39;;;;;;;0.80;0.60;;;;;;;;;;4187512;28;20051;-40
2021/12/12 04:37:40;;;;;;;0.82;0.60;;;;;;;;;;4197978;28;20064;-41
2021/12/12 04:39:46;;;;;;;0.80;0.80;;;;;;;;;;4198186;28;20048;-39
2021/12/12 04:41:48;;;;;;;0.88;0.70;;;;;;;;;;4198876;28;20306;-38
2021/12/12 04:43:49;;;;;;;0.50;0.40;;;;;;;;;;4199149;28;20056;-41
2021/12/12 04:46:08;;;;;;;0.60;0.50;;;;;;;;;;4199066;28;20439;-39
2021/12/12 04:50:49;;;;;;;0.50;0.45;;;;;;;;;;4197321;28;20090;-42
2021/12/12 04:53:03;;;;;;;0.50;0.50;;;;;;;;;;4198402;28;20053;-42
2021/12/12 04:55:07;;;;;;;0.57;0.57;;;;;;;;;;4199069;28;20044;-43
2021/12/12 04:57:08;;;;;;;0.65;0.63;;;;;;;;;;4198555;28;20048;-42
2021/12/12 04:59:14;;;;;;;0.70;0.70;;;;;;;;;;4197409;28;20136;-43
2021/12/12 05:01:20;;;;;;;0.80;0.60;;;;;;;;;;4197790;28;20050;-43
2021/12/12 05:03:25;;;;;;;0.75;0.50;;;;;;;;;;4198559;28;20060;-42
2021/12/12 05:05:31;;;;;;;0.40;0.40;;;;;;;;;;4198686;28;20048;-43
2021/12/12 05:07:32;;;;;;;0.60;0.60;;;;;;;;;;4197848;28;20056;-43
2021/12/12 05:09:43;;;;;;;0.80;0.75;;;;;;;;;;4198638;28;20098;-42
2021/12/12 05:11:51;;;;;;;1.10;0.73;;;;;;;;;;4198227;28;20048;-43
2021/12/12 05:13:55;;;;;;;1.05;0.60;;;;;;;;;;4198200;28;20374;-43
2021/12/12 05:16:01;;;;;;;0.50;0.43;;;;;;;;;;4197129;28;20052;-43
2021/12/12 05:18:08;;;;;;;0.50;0.50;;;;;;;;;;4198312;28;20174;-42
2021/12/12 05:20:11;;;;;;;1.23;0.63;;;;;;;;;;4198306;28;20044;-42
2021/12/12 05:22:14;;;;;;;0.40;0.40;;;;;;;;;;4196274;28;20068;-42
2021/12/12 05:24:16;;;;;;;1.08;0.85;;;;;;;;;;4198196;28;20056;-42
2021/12/12 05:26:18;;;;;;;1.13;0.73;;;;;;;;;;4198036;28;20055;-43
2021/12/12 05:28:22;;;;;;;0.80;0.65;;;;;;;;;;4198160;28;20063;-44
2021/12/12 05:30:26;;;;;;;1.08;0.70;;;;;;;;;;4198070;28;20405;-42
2021/12/12 05:32:29;;;;;;;0.73;0.60;;;;;;;;;;4197769;28;20428;-42
2021/12/12 05:34:32;;;;;;;0.70;0.60;;;;;;;;;;4198266;28;20049;-42
2021/12/12 05:36:33;;;;;;;0.77;0.70;;;;;;;;;;4197896;28;20052;-43
2021/12/12 05:38:34;;;;;;;0.70;0.70;;;;;;;;;;4196084;28;20377;-43
2021/12/12 05:40:37;;;;;;;0.63;0.47;;;;;;;;;;4198030;28;20060;-42
2021/12/12 05:42:38;;;;;;;0.82;0.50;;;;;;;;;;4197545;28;20365;-42
2021/12/12 05:44:40;;;;;;;0.60;0.50;;;;;;;;;;4197832;28;20052;-42
2021/12/12 05:46:41;;;;;;;0.88;0.77;;;;;;;;;;4197862;28;20201;-42
2021/12/12 05:48:43;;;;;;;0.75;0.65;;;;;;;;;;4197647;28;20060;-43
2021/12/12 05:50:45;;;;;;;0.82;0.60;;;;;;;;;;4197776;28;20044;-42
2021/12/12 05:52:46;;;;;;;0.65;0.60;;;;;;;;;;4197350;28;20055;-42
2021/12/12 05:54:48;;;;;;;0.80;0.43;;;;;;;;;;4197561;28;20048;-43
2021/12/12 05:56:49;;;;;;;0.57;0.57;;;;;;;;;;4197486;28;20507;-42
2021/12/12 05:58:51;;;;;;;0.82;0.80;;;;;;;;;;4197613;28;20423;-42
2021/12/12 06:00:54;;;;;;;0.50;0.50;;;;;;;;;;4197557;28;20056;-43
2021/12/12 06:02:55;;;;;;;0.60;0.50;;;;;;;;;;4197622;28;20094;-42
2021/12/12 06:04:57;;;;;;;0.60;0.60;;;;;;;;;;4197528;28;20053;-43
2021/12/12 06:06:58;;;;;;;0.75;0.68;;;;;;;;;;4196920;28;20060;-42
2021/12/12 06:09:02;;;;;;;0.60;0.55;;;;;;;;;;4197305;28;20477;-42
2021/12/12 06:11:04;;;;;;;0.32;0.32;;;;;;;;;;4197453;28;20056;-42
2021/12/12 06:13:09;;;;;;;0.70;0.60;;;;;;;;;;4197375;28;20040;-42
2021/12/12 06:15:14;;;;;;;0.98;0.77;;;;;;;;;;4196224;28;20044;-43
2021/12/12 06:17:16;;;;;;;0.75;0.75;;;;;;;;;;4197653;28;20045;-42
2021/12/12 06:19:20;;;;;;;0.60;0.60;;;;;;;;;;4197574;28;20052;-42
2021/12/12 06:21:21;;;;;;;0.90;0.80;;;;;;;;;;4197179;28;20484;-42
2021/12/12 06:23:22;;;;;;;1.05;0.70;;;;;;;;;;4196705;28;20098;-42
2021/12/12 06:25:24;;;;;;;0.40;0.40;;;;;;;;;;4197207;28;20121;-43
2021/12/12 06:27:25;;;;;;;0.57;0.50;;;;;;;;;;4197006;28;20049;-42
2021/12/12 06:29:26;;;;;;;0.50;0.50;;;;;;;;;;4197266;28;20052;-42
2021/12/12 06:31:27;;;;;;;0.80;0.80;;;;;;;;;;4197078;28;20044;-42
2021/12/12 06:33:29;;;;;;;0.68;0.68;;;;;;;;;;4197280;28;20105;-42
2021/12/12 06:35:30;;;;;;;0.60;0.60;;;;;;;;;;4195835;28;20115;-42
2021/12/12 06:37:31;;;;;;;0.75;0.70;;;;;;;;;;4196831;28;20102;-42
2021/12/12 06:39:32;;;;;;;0.70;0.50;;;;;;;;;;4195784;28;20461;-41
2021/12/12 06:41:34;;;;;;;0.73;0.70;;;;;;;;;;4194187;28;20059;-42
2021/12/12 06:43:35;;;;;;;0.73;0.68;;;;;;;;;;4191585;28;20443;-42
2021/12/12 06:45:36;;;;;;;1.02;0.60;;;;;;;;;;4189472;28;20507;-42
2021/12/12 06:47:38;;;;;;;0.80;0.70;;;;;;;;;;4188010;28;20049;-43
2021/12/12 06:49:39;;;;;;;0.93;0.70;;;;;;;;;;4190883;28;20079;-43
2021/12/12 06:51:43;;;;;;;0.80;0.70;;;;;;;;;;4195778;28;20400;-43
2021/12/12 06:53:45;;;;;;;0.75;0.70;;;;;;;;;;4199028;28;20074;-43
2021/12/12 06:55:47;;;;;;;0.65;0.55;;;;;;;;;;4196110;28;20044;-42
2021/12/12 06:57:49;;;;;;;1.83;0.68;;;;;;;;;;4191078;28;20041;-43
2021/12/12 06:59:50;;;;;;;0.60;0.60;;;;;;;;;;4193816;28;20102;-42
2021/12/12 07:01:51;;;;;;;0.60;0.60;;;;;;;;;;4186998;28;20373;-42
2021/12/12 07:03:52;;;;;;;0.80;0.68;;;;;;;;;;4189024;28;20106;-42
2021/12/12 07:05:53;;;;;;;1.00;0.90;;;;;;;;;;4190354;28;20098;-41
2021/12/12 07:07:56;;;;;;;0.60;0.60;;;;;;;;;;4188939;28;20553;-43
2021/12/12 07:09:57;;;;;;;1.50;0.65;;;;;;;;;;4196291;28;20048;-42
2021/12/12 07:12:01;;;;;;;1.48;0.88;;;;;;;;;;4186984;28;20458;-42
2021/12/12 07:14:04;;;;;;;1.00;0.75;;;;;;;;;;4193099;28;20488;-42
2021/12/12 07:16:06;;;;;;;0.65;0.60;;;;;;;;;;4180183;28;20052;-42
2021/12/12 07:18:09;;;;;;;0.80;0.60;;;;;;;;;;4180304;28;20045;-42
2021/12/12 07:20:11;;;;;;;0.70;0.65;;;;;;;;;;4180399;28;20056;-42
2021/12/12 07:22:14;;;;;;;0.93;0.70;;;;;;;;;;4180233;28;20447;-43
2021/12/12 07:24:16;;;;;;;0.52;0.52;;;;;;;;;;4178499;28;20398;-43
2021/12/12 07:26:18;;;;;;;0.70;0.68;;;;;;;;;;4187466;28;20053;-42
2021/12/12 07:28:19;;;;;;;0.55;0.55;;;;;;;;;;4191075;28;20060;-42
2021/12/12 07:30:20;;;;;;;0.82;0.70;;;;;;;;;;4183566;28;20053;-42
2021/12/12 07:32:21;;;;;;;0.70;0.60;;;;;;;;;;4183864;28;20095;-42
2021/12/12 07:34:22;;;;;;;0.60;0.57;;;;;;;;;;4167847;28;20045;-42
2021/12/12 07:36:24;;;;;;;0.63;0.60;;;;;;;;;;4183995;28;20048;-43
2021/12/12 07:38:27;;;;;;;0.75;0.60;;;;;;;;;;4187258;28;20379;-43
2021/12/12 07:40:28;;;;;;;0.45;0.45;;;;;;;;;;4191809;28;20045;-43
2021/12/12 07:42:30;;;;;;;0.88;0.60;;;;;;;;;;4198008;28;20044;-43
2021/12/12 07:44:32;;;;;;;1.50;0.55;;;;;;;;;;4187789;28;20394;-41
2021/12/12 07:46:35;;;;;;;1.00;0.90;;;;;;;;;;4190861;28;20404;-42
2021/12/12 07:48:39;;;;;;;0.80;0.60;;;;;;;;;;4182727;28;20045;-42
2021/12/12 07:50:42;;;;;;;0.70;0.70;;;;;;;;;;4183843;28;20053;-42
2021/12/12 07:52:44;;;;;;;0.77;0.75;;;;;;;;;;4188973;28;20045;-43
2021/12/12 07:54:47;;;;;;;0.88;0.70;;;;;;;;;;4181945;28;20041;-42
2021/12/12 07:56:48;;;;;;;0.65;0.65;;;;;;;;;;4184714;28;20048;-43
2021/12/12 07:58:49;;;;;;;0.60;0.60;;;;;;;;;;4191020;28;20480;-42
2021/12/12 08:00:51;;;;;;;0.60;0.60;;;;;;;;;;4193614;28;20484;-42
2021/12/12 08:02:53;;;;;;;0.60;0.60;;;;;;;;;;4193512;28;20053;-43
2021/12/12 08:04:54;;;;;;;0.45;0.45;;;;;;;;;;4182635;28;20107;-42
2021/12/12 08:06:56;;;;;;;1.10;0.52;;;;;;;;;;4183191;28;20106;-44
2021/12/12 08:08:58;;;;;;;1.20;0.82;;;;;;;;;;4183482;28;20053;-42
2021/12/12 08:10:59;;;;;;;1.02;0.85;;;;;;;;;;4183570;28;20053;-42
2021/12/12 08:13:00;;;;;;;1.27;0.73;;;;;;;;;;4183105;28;20439;-42
2021/12/12 08:15:04;;;;;;;0.63;0.63;;;;;;;;;;4186701;28;20120;-42
2021/12/12 08:17:06;;;;;;;0.95;0.70;;;;;;;;;;4189151;28;20041;-42
2021/12/12 08:19:07;;;;;;;0.60;0.60;;;;;;;;;;4189371;28;20201;-43
2021/12/12 08:21:08;;;;;;;0.52;0.50;;;;;;;;;;4185699;28;20481;-42
2021/12/12 08:23:09;;;;;;;0.90;0.65;;;;;;;;;;4182586;28;20053;-42
2021/12/12 08:25:12;;;;;;;1.20;1.00;;;;;;;;;;4183008;28;20052;-42
2021/12/12 08:27:13;;;;;;;0.77;0.65;;;;;;;;;;4185186;28;20389;-42
2021/12/12 08:29:16;;;;;;;0.50;0.50;;;;;;;;;;4189476;28;20094;-43
2021/12/12 08:31:17;;;;;;;0.52;0.52;;;;;;;;;;4184020;28;20059;-42
2021/12/12 08:33:18;;;;;;;2.60;0.80;;;;;;;;;;4194441;28;20044;-43
2021/12/12 08:35:20;;;;;;;1.35;0.80;;;;;;;;;;4191845;28;20095;-42
2021/12/12 08:37:21;;;;;;;0.70;0.70;;;;;;;;;;4186451;28;20037;-44
2021/12/12 08:39:22;;;;;;;0.70;0.52;;;;;;;;;;4186261;28;20072;-43
2021/12/12 08:41:23;;;;;;;0.63;0.63;;;;;;;;;;4193885;28;20068;-43
2021/12/12 08:43:25;;;;;;;1.05;0.60;;;;;;;;;;4187114;28;20057;-42
2021/12/12 08:45:29;;;;;;;0.60;0.60;;;;;;;;;;4193668;28;20053;-42
2021/12/12 08:47:32;;;;;;;0.90;0.88;;;;;;;;;;4191842;28;20060;-42
2021/12/12 08:49:34;;;;;;;0.77;0.65;;;;;;;;;;4187556;28;20048;-43
2021/12/12 08:51:38;;;;;;;0.60;0.50;;;;;;;;;;4190925;28;20053;-43
2021/12/12 08:53:39;;;;;;;1.20;0.68;;;;;;;;;;4183959;28;20382;-42
2021/12/12 08:55:43;;;;;;;1.02;0.80;;;;;;;;;;4192983;28;20041;-43
2021/12/12 08:58:03;;;;;;;1.00;0.85;;;;;;;;;;4196132;28;20099;-42
2021/12/12 09:00:07;;;;;;;0.80;0.60;;;;;;;;;;4187980;28;20064;-42
2021/12/12 09:02:11;;;;;;;0.80;0.73;;;;;;;;;;4197482;28;20056;-42
2021/12/12 09:04:12;;;;;;;0.90;0.70;;;;;;;;;;4189757;28;20464;-43
2021/12/12 09:06:14;;;;;;;0.68;0.68;;;;;;;;;;4184309;28;20389;-42
2021/12/12 09:08:18;;;;;;;0.90;0.70;;;;;;;;;;4183981;28;20045;-43
2021/12/12 09:10:21;;;;;;;1.08;0.57;;;;;;;;;;4189001;28;20045;-42
2021/12/12 09:12:28;;;;;;;0.73;0.60;;;;;;;;;;4182142;28;20140;-42
2021/12/12 09:14:48;;;;;;;1.00;0.70;;;;;;;;;;4180650;28;20045;-43
2021/12/12 09:16:54;;;;;;;0.98;0.60;;;;;;;;;;4179861;28;20056;-42
2021/12/12 09:18:58;;;;;;;0.75;0.73;;;;;;;;;;4181592;28;20057;-43
2021/12/12 09:21:06;;;;;;;0.95;0.75;;;;;;;;;;4180144;28;20060;-43
2021/12/12 09:23:12;;;;;;;1.10;0.90;;;;;;;;;;4180973;28;20402;-43
2021/12/12 09:25:24;;;;;;;1.55;0.70;;;;;;;;;;4181460;28;20390;-43
2021/12/12 09:27:34;;;;;;;0.73;0.60;;;;;;;;;;4181590;28;20057;-42
2021/12/12 09:29:35;;;;;;;;;;;;;;;;;;4182256;28;20053;-42
2021/12/12 09:31:40;;;;;;;1.80;0.65;;;;;;;;;;4181504;28;19977;-43
2021/12/12 09:33:43;;;;;;;0.98;0.70;;;;;;;;;;4181698;28;20144;-42
2021/12/12 09:35:44;;;;;;;0.80;0.68;;;;;;;;;;4181270;28;20041;-43
2021/12/12 09:37:57;;;;;;;0.65;0.60;;;;;;;;;;4180804;28;20095;-42
2021/12/12 09:40:18;;;;;;;0.73;0.55;;;;;;;;;;4181334;28;20075;-42
2021/12/12 09:42:38;;;;;;;0.80;0.68;;;;;;;;;;4160190;28;20094;-42
2021/12/12 09:44:39;;;;;;;;;;;;;;;;;;4181947;28;20052;-43
2021/12/12 09:47:13;;;;;;;1.05;0.73;;;;;;;;;;4181424;28;20292;-42
2021/12/12 09:51:57;;;;;;;0.82;0.55;;;;;;;;;;4180800;28;20060;-43
2021/12/12 09:54:10;;;;;;;0.90;0.85;;;;;;;;;;4180984;28;20045;-42
2021/12/12 09:56:21;;;;;;;1.20;0.80;;;;;;;;;;4181082;28;20118;-43
2021/12/12 09:58:34;;;;;;;0.80;0.70;;;;;;;;;;4180996;28;20409;-43
2021/12/12 10:00:45;;;;;;;0.90;0.70;;;;;;;;;;4181016;28;20045;-42
2021/12/12 10:02:56;;;;;;;0.50;0.50;;;;;;;;;;4180860;28;20060;-42
2021/12/12 10:05:15;;;;;;;1.00;0.90;;;;;;;;;;4181014;28;20485;-42
2021/12/12 10:07:24;;;;;;;0.70;0.70;;;;;;;;;;4180534;28;20049;-42
2021/12/12 10:09:32;;;;;;;1.15;0.98;;;;;;;;;;4180768;28;20049;-42
2021/12/12 10:11:42;;;;;;;1.80;0.80;;;;;;;;;;4180766;28;20444;-42
2021/12/12 10:13:45;;;;;;;0.70;0.68;;;;;;;;;;4180768;28;20106;-43
2021/12/12 10:15:54;;;;;;;1.33;0.88;;;;;;;;;;4180760;28;20049;-43
2021/12/12 10:18:01;;;;;;;0.75;0.70;;;;;;;;;;4180654;28;20433;-43
2021/12/12 10:20:08;;;;;;;1.00;0.90;;;;;;;;;;4180961;28;20098;-42
2021/12/12 10:22:13;;;;;;;0.82;0.80;;;;;;;;;;4179788;28;20045;-42
2021/12/12 10:24:14;;;;;;;1.17;0.80;;;;;;;;;;4180779;28;20060;-42
2021/12/12 10:26:31;;;;;;;0.88;0.70;;;;;;;;;;4180841;28;20484;-42
2021/12/12 10:28:41;;;;;;;1.15;0.90;;;;;;;;;;4180594;28;20473;-42
2021/12/12 10:30:47;;;;;;;1.88;1.00;;;;;;;;;;4180685;28;20052;-43
2021/12/12 10:33:08;;;;;;;0.50;0.50;;;;;;;;;;4180484;28;20106;-42
2021/12/12 10:35:11;;;;;;;1.17;0.77;;;;;;;;;;4158908;28;20068;-43
2021/12/12 10:37:15;;;;;;;0.73;0.65;;;;;;;;;;4179934;28;20053;-42
2021/12/12 10:39:19;;;;;;;0.75;0.68;;;;;;;;;;4180437;28;20048;-42
2021/12/12 10:41:22;;;;;;;0.60;0.60;;;;;;;;;;4180508;28;20378;-43
2021/12/12 10:43:26;;;;;;;1.15;0.77;;;;;;;;;;4180365;28;20057;-43
2021/12/12 10:45:30;;;;;;;0.63;0.60;;;;;;;;;;4180335;28;20430;-42
2021/12/12 10:47:37;;;;;;;0.77;0.60;;;;;;;;;;4180316;28;20437;-43
2021/12/12 10:49:43;;;;;;;1.73;1.10;;;;;;;;;;4180238;28;20446;-43
2021/12/12 10:51:47;;;;;;;0.88;0.70;;;;;;;;;;4179810;28;20048;-43
2021/12/12 10:53:56;;;;;;;1.13;0.90;;;;;;;;;;4180631;28;20057;-42
2021/12/12 10:56:13;;;;;;;0.70;0.70;;;;;;;;;;4180375;28;20128;-42
2021/12/12 10:58:24;;;;;;;1.35;0.70;;;;;;;;;;4180393;28;20045;-42
2021/12/12 11:00:26;;;;;;;0.60;0.60;;;;;;;;;;4179544;28;20440;-42
2021/12/12 11:02:33;;;;;;;1.25;0.80;;;;;;;;;;4179044;28;20095;-42
2021/12/12 11:04:43;;;;;;;0.85;0.70;;;;;;;;;;4180180;28;20488;-42
2021/12/12 11:06:59;;;;;;;0.88;0.68;;;;;;;;;;4179707;28;20045;-42
2021/12/12 11:09:06;;;;;;;0.60;0.60;;;;;;;;;;4180341;28;20045;-43
2021/12/12 11:11:19;;;;;;;1.17;0.90;;;;;;;;;;4180224;28;20359;-42
2021/12/12 11:13:30;;;;;;;0.60;0.60;;;;;;;;;;4180196;28;20049;-42
2021/12/12 11:15:46;;;;;;;1.40;0.80;;;;;;;;;;4180443;28;20045;-42
2021/12/12 11:17:51;;;;;;;0.60;0.50;;;;;;;;;;4180067;28;20184;-42
2021/12/12 11:19:54;;;;;;;0.82;0.63;;;;;;;;;;4179202;28;20049;-42
2021/12/12 11:22:08;;;;;;;0.88;0.80;;;;;;;;;;4179472;28;20065;-42
2021/12/12 11:24:13;;;;;;;1.20;0.90;;;;;;;;;;4180319;28;20053;-43
2021/12/12 11:26:20;;;;;;;0.85;0.70;;;;;;;;;;4180355;28;20118;-42
2021/12/12 11:28:33;;;;;;;0.73;0.70;;;;;;;;;;4179912;28;20049;-43
2021/12/12 11:30:38;;;;;;;0.68;0.68;;;;;;;;;;4180124;28;20073;-43
2021/12/12 11:32:39;;;;;;;0.98;0.80;;;;;;;;;;4179954;28;20148;-42
2021/12/12 11:34:42;;;;;;;1.10;1.00;;;;;;;;;;4180304;28;20107;-43
2021/12/12 11:37:05;;;;;;;0.98;0.88;;;;;;;;;;4179526;28;20049;-42
2021/12/12 11:39:15;;;;;;;0.68;0.60;;;;;;;;;;4180236;28;20053;-42
2021/12/12 11:41:18;;;;;;;0.68;0.68;;;;;;;;;;4180008;28;20115;-42
2021/12/12 11:43:38;;;;;;;1.00;0.80;;;;;;;;;;4179814;28;20053;-42
2021/12/12 11:45:41;;;;;;;1.00;0.80;;;;;;;;;;4178754;28;20057;-42
2021/12/12 11:48:01;;;;;;;0.82;0.70;;;;;;;;;;4179773;28;20611;-43
2021/12/12 11:50:10;;;;;;;1.05;0.80;;;;;;;;;;4179868;28;20102;-43
2021/12/12 11:52:15;;;;;;;1.33;1.08;;;;;;;;;;4179351;28;20098;-42
2021/12/12 11:54:25;;;;;;;0.80;0.70;;;;;;;;;;4177211;28;20096;-42
2021/12/12 11:56:29;;;;;;;0.90;0.60;;;;;;;;;;4177225;28;20049;-42
2021/12/12 11:58:33;;;;;;;0.80;0.80;;;;;;;;;;4177503;28;20060;-42
2021/12/12 12:00:37;;;;;;;0.77;0.60;;;;;;;;;;4179885;28;20485;-42
2021/12/12 12:02:57;;;;;;;1.52;1.00;;;;;;;;;;4179861;28;20053;-43
2021/12/12 12:05:16;;;;;;;0.80;0.70;;;;;;;;;;4179964;28;20064;-42
2021/12/12 12:07:20;;;;;;;1.42;1.02;;;;;;;;;;4179240;28;20128;-42
2021/12/12 12:09:33;;;;;;;0.75;0.50;;;;;;;;;;4179733;28;20048;-42
2021/12/12 12:11:47;;;;;;;0.80;0.80;;;;;;;;;;4181542;28;20049;-43
2021/12/12 12:14:18;;;;;;;1.35;0.68;;;;;;;;;;4182767;28;20049;-42
2021/12/12 12:16:28;;;;;;;0.50;0.50;;;;;;;;;;4174007;28;20114;-43
2021/12/12 12:18:28;;;;;;;;;;;;;;;;;;4183082;28;20064;-43
2021/12/12 12:20:35;;;;;;;0.85;0.70;;;;;;;;;;4182687;28;19917;-42
2021/12/12 12:22:47;;;;;;;0.77;0.77;;;;;;;;;;4182095;28;20052;-42
2021/12/12 12:24:58;;;;;;;0.98;0.90;;;;;;;;;;4182948;28;20049;-42
2021/12/12 12:27:03;;;;;;;0.90;0.63;;;;;;;;;;4182689;28;20053;-42
2021/12/12 12:29:06;;;;;;;0.93;0.70;;;;;;;;;;4181128;28;20068;-43
2021/12/12 12:31:28;;;;;;;0.80;0.80;;;;;;;;;;4182694;28;20175;-42
2021/12/12 12:33:35;;;;;;;0.95;0.73;;;;;;;;;;4182170;28;20053;-43
2021/12/12 12:35:51;;;;;;;0.90;0.75;;;;;;;;;;4182344;28;20053;-43
2021/12/12 12:38:11;;;;;;;0.82;0.73;;;;;;;;;;4181820;28;20053;-42
2021/12/12 12:40:37;;;;;;;1.10;1.00;;;;;;;;;;4182442;28;20103;-43
2021/12/12 12:43:17;;;;;;;0.80;0.70;;;;;;;;;;4182144;28;20056;-42
2021/12/12 12:45:36;;;;;;;0.95;0.82;;;;;;;;;;4182322;28;20096;-42
2021/12/12 12:47:41;;;;;;;0.98;0.88;;;;;;;;;;4182253;28;20060;-43
2021/12/12 12:50:07;;;;;;;0.70;0.70;;;;;;;;;;4182106;28;20079;-42
2021/12/12 12:52:08;;;;;;;0.80;0.70;;;;;;;;;;4181489;28;20045;-42